Time;durP1;ratioP1;P1;durP2;ratioP2;P2;SDS_P1;SDS_P2;PMS_P1;PMS_P2;Temp;Humidity;BMP_temperature;BMP_pressure;BME280_temperature;BME280_humidity;BME280_pressure;Samples;Min_cycle;Max_cycle;Signal;HPM_P1;HPM_P2
2022/04/15 00:01:05;;;;;;;15.40;5.25;;;;;;;11.38;40.64;95573.16;6265038;22;20041;-85
2022/04/15 00:03:31;;;;;;;19.92;5.82;;;;;;;11.80;41.26;95649.09;6264504;22;20009;-86
2022/04/15 00:05:56;;;;;;;16.08;5.97;;;;;;;12.21;41.08;95705.59;6264478;22;20034;-86
2022/04/15 00:08:22;;;;;;;20.75;6.28;;;;;;;10.88;41.42;95512.19;6292224;22;19999;-86
2022/04/15 00:10:47;;;;;;;15.90;5.88;;;;;;;10.97;41.68;95542.44;6293152;22;20016;-86
2022/04/15 00:13:14;;;;;;;26.40;6.88;;;;;;;12.01;41.52;95714.41;6264639;22;20011;-86
2022/04/15 00:15:40;;;;;;;24.75;7.10;;;;;;;9.79;41.85;95397.56;6263522;22;20007;-86
2022/04/15 00:18:06;;;;;;;26.60;7.22;;;;;;;10.44;41.78;95494.94;6264574;22;20011;-86
2022/04/15 00:20:32;;;;;;;18.27;6.47;;;;;;;11.47;41.42;95645.13;6264288;22;20520;-87
2022/04/15 00:22:58;;;;;;;22.15;6.80;;;;;;;11.47;42.13;95675.13;6258294;22;20398;-87
2022/04/15 00:25:25;;;;;;;20.58;6.75;;;;;;;11.65;41.77;95718.16;6257910;22;20007;-87
2022/04/15 00:27:50;;;;;;;14.75;6.60;;;;;;;11.72;42.53;95721.34;6258061;22;20007;-87
2022/04/15 00:30:16;;;;;;;14.10;5.80;;;;;;;11.51;42.83;95709.94;6260886;22;20517;-87
2022/04/15 00:32:42;;;;;;;18.35;5.85;;;;;;;8.36;42.48;95233.38;6258311;22;20030;-87
2022/04/15 00:35:08;;;;;;;16.00;6.15;;;;;;;9.91;42.35;95443.19;6258746;22;20045;-87
2022/04/15 00:37:34;;;;;;;17.88;5.72;;;;;;;9.13;43.79;95407.19;6258634;22;20477;-87
2022/04/15 00:40:02;;;;;;;24.58;6.90;;;;;;;11.11;43.32;95718.66;6258795;22;20012;-87
2022/04/15 00:42:28;;;;;;;17.70;5.68;;;;;;;10.31;43.07;95560.91;6258459;22;20004;-86
2022/04/15 00:44:55;;;;;;;21.45;6.13;;;;;;;8.96;42.79;95328.00;6258824;22;20022;-86
2022/04/15 00:47:45;;;;;;;16.27;6.10;;;;;;;11.45;42.61;95721.59;6257800;22;20015;-86
2022/04/15 00:50:11;;;;;;;16.65;6.22;;;;;;;11.41;43.15;95726.66;6258467;22;20012;-86
2022/04/15 00:52:42;;;;;;;23.67;6.72;;;;;;;10.64;42.38;95608.19;6258255;22;20016;-86
2022/04/15 00:55:08;;;;;;;18.42;6.50;;;;;;;11.26;43.59;95694.78;6260444;22;20539;-87
2022/04/15 00:57:37;;;;;;;17.40;6.00;;;;;;;10.33;43.64;95561.47;6259173;22;20012;-87
2022/04/15 01:00:05;;;;;;;17.90;6.40;;;;;;;11.36;43.66;95717.91;6258163;22;20526;-88
2022/04/15 01:02:34;;;;;;;15.35;6.32;;;;;;;11.21;44.31;95716.03;6260738;22;20007;-86
2022/04/15 01:05:02;;;;;;;16.42;6.70;;;;;;;11.17;44.40;95725.56;6258385;22;20003;-86
2022/04/15 01:07:41;;;;;;;22.05;7.22;;;;;;;8.89;44.24;95367.94;6258436;22;20016;-87
2022/04/15 01:10:11;;;;;;;27.52;7.15;;;;;;;10.95;44.54;95707.22;6258874;22;20015;-86
2022/04/15 01:12:49;;;;;;;21.37;6.87;;;;;;;10.89;44.38;95689.69;6258215;22;20012;-86
2022/04/15 01:15:15;;;;;;;18.95;7.15;;;;;;;10.17;44.27;95575.69;6259028;22;20069;-85
2022/04/15 01:17:41;;;;;;;16.63;7.05;;;;;;;9.22;44.70;95438.19;6259821;22;20461;-86
2022/04/15 01:20:09;;;;;;;15.63;7.65;;;;;;;10.67;45.17;95697.88;6259192;22;20211;-86
2022/04/15 01:22:40;;;;;;;23.50;7.22;;;;;;;11.00;45.68;95723.16;6258870;22;20227;-86
2022/04/15 01:25:14;;;;;;;14.50;6.95;;;;;;;9.39;46.17;95516.59;6259692;22;20015;-86
2022/04/15 01:27:44;;;;;;;19.40;7.63;;;;;;;10.74;45.50;95693.13;6258478;22;20516;-86
2022/04/15 01:30:18;;;;;;;22.08;7.53;;;;;;;10.18;46.06;95638.28;6259865;22;20008;-86
2022/04/15 01:32:45;;;;;;;19.05;8.00;;;;;;;9.59;46.48;95594.28;6260043;22;20015;-86
2022/04/15 01:35:13;;;;;;;31.85;8.60;;;;;;;10.34;46.88;95725.59;6256154;22;20110;-87
2022/04/15 01:37:39;;;;;;;21.30;8.55;;;;;;;9.66;47.11;95618.69;6256733;22;20279;-87
2022/04/15 01:40:07;;;;;;;26.45;8.50;;;;;;;10.16;46.72;95696.03;6257295;22;20383;-86
2022/04/15 01:42:34;;;;;;;20.80;7.93;;;;;;;9.53;46.94;95581.28;6255337;22;20411;-86
2022/04/15 01:45:01;;;;;;;19.17;8.52;;;;;;;10.17;47.16;95684.38;6258649;22;20785;-86
2022/04/15 01:47:27;;;;;;;23.35;8.30;;;;;;;10.34;46.60;95716.81;6255952;22;20023;-86
2022/04/15 01:49:53;;;;;;;19.20;7.90;;;;;;;7.90;47.00;95361.72;6255801;22;20015;-86
2022/04/15 01:52:18;;;;;;;24.05;8.43;;;;;;;10.10;47.21;95676.66;6257466;22;20760;-87
2022/04/15 01:54:45;;;;;;;22.08;7.65;;;;;;;10.30;47.36;95703.28;6256420;22;20016;-87
2022/04/15 01:57:11;;;;;;;21.45;8.20;;;;;;;10.28;47.13;95702.75;6256954;22;20015;-87
2022/04/15 01:59:38;;;;;;;21.02;7.30;;;;;;;9.90;47.45;95631.53;6257840;22;20023;-87
2022/04/15 02:02:04;;;;;;;20.60;7.55;;;;;;;9.46;47.84;95578.06;6257410;22;20027;-86
2022/04/15 02:04:30;;;;;;;30.40;8.43;;;;;;;7.23;47.82;95280.38;6258168;22;20438;-86
2022/04/15 02:06:56;;;;;;;43.90;9.27;;;;;;;9.44;49.96;95700.09;6257915;22;20043;-86
2022/04/15 02:09:22;;;;;;;24.27;7.57;;;;;;;6.58;49.94;95239.09;6260283;22;20436;-87
2022/04/15 02:11:48;;;;;;;24.20;8.35;;;;;;;8.65;49.88;95572.16;6258466;22;20019;-87
2022/04/15 02:14:14;;;;;;;31.73;9.25;;;;;;;8.71;49.10;95606.34;6260325;22;20022;-87
2022/04/15 02:16:41;;;;;;;20.17;8.18;;;;;;;9.65;49.10;95693.09;6258509;22;20039;-87
2022/04/15 02:19:06;;;;;;;25.85;8.48;;;;;;;7.51;48.93;95345.25;6258332;22;20015;-87
2022/04/15 02:21:32;;;;;;;19.88;8.63;;;;;;;9.20;50.13;95607.00;6258345;22;20027;-87
2022/04/15 02:23:58;;;;;;;27.70;8.38;;;;;;;8.78;49.77;95546.09;6289047;22;20055;-87
2022/04/15 02:26:24;;;;;;;23.27;9.05;;;;;;;7.19;49.47;95345.19;6263202;22;20075;-87
2022/04/15 02:28:49;;;;;;;29.33;10.02;;;;;;;6.53;50.29;95271.44;6264587;22;20010;-87
2022/04/15 02:31:15;;;;;;;26.17;9.68;;;;;;;8.75;50.89;95646.31;6265887;22;20011;-87
2022/04/15 02:33:40;;;;;;;24.42;9.82;;;;;;;8.33;50.98;95553.63;6263455;22;20239;-87
2022/04/15 02:36:06;;;;;;;20.25;9.38;;;;;;;9.38;50.22;95695.03;6263755;22;20455;-87
2022/04/15 02:38:33;;;;;;;19.13;10.32;;;;;;;9.06;49.53;95618.28;6263999;22;20015;-87
2022/04/15 02:40:58;;;;;;;27.02;11.15;;;;;;;9.16;48.92;95634.22;6293336;22;20471;-87
2022/04/15 02:43:31;;;;;;;29.73;11.10;;;;;;;8.32;48.99;95499.19;6269633;22;20014;-87
2022/04/15 02:45:58;;;;;;;21.92;10.52;;;;;;;8.94;48.97;95585.88;6271995;22;20021;-88
2022/04/15 02:48:24;;;;;;;24.02;11.27;;;;;;;9.24;49.13;95618.66;6270193;22;20043;-88
2022/04/15 02:50:50;;;;;;;34.17;13.00;;;;;;;9.50;49.07;95663.84;6269542;22;20368;-87
2022/04/15 02:53:15;;;;;;;29.10;11.75;;;;;;;9.52;47.74;95657.25;6269153;22;20018;-87
2022/04/15 02:55:41;;;;;;;27.63;12.88;;;;;;;8.88;47.59;95585.84;6298611;22;20007;-87
2022/04/15 02:58:06;;;;;;;28.42;12.57;;;;;;;9.27;48.06;95649.94;6268046;22;20015;-87
2022/04/15 03:00:32;;;;;;;31.55;10.80;;;;;;;8.74;49.21;95600.56;6268104;22;20106;-87
2022/04/15 03:02:57;;;;;;;42.97;11.60;;;;;;;9.09;49.93;95660.88;6266453;22;20015;-87
2022/04/15 03:05:23;;;;;;;28.65;11.23;;;;;;;9.20;49.54;95659.94;6265442;22;20435;-87
2022/04/15 03:07:48;;;;;;;29.23;10.75;;;;;;;8.40;49.54;95555.03;6266277;22;20042;-88
2022/04/15 03:10:14;;;;;;;27.30;10.55;;;;;;;8.74;50.20;95594.47;6265504;22;20007;-88
2022/04/15 03:12:39;;;;;;;20.70;10.52;;;;;;;9.45;49.77;95695.59;6265391;22;20007;-87
2022/04/15 03:15:06;;;;;;;29.40;11.63;;;;;;;8.77;49.59;95586.03;6265859;22;20029;-87
2022/04/15 03:17:33;;;;;;;26.60;10.68;;;;;;;8.69;49.67;95571.44;6265592;22;20120;-87
2022/04/15 03:20:02;;;;;;;22.50;10.35;;;;;;;9.00;50.04;95614.00;6265011;22;20391;-87
2022/04/15 03:22:28;;;;;;;31.60;11.15;;;;;;;9.41;50.29;95700.59;6264074;22;20088;-87
2022/04/15 03:24:54;;;;;;;22.27;9.88;;;;;;;9.46;49.75;95692.69;6264909;22;20011;-87
2022/04/15 03:27:19;;;;;;;31.35;9.95;;;;;;;8.57;50.45;95583.19;6264315;22;20018;-86
2022/04/15 03:29:45;;;;;;;22.48;10.43;;;;;;;9.30;49.82;95672.47;6265071;22;20014;-87
2022/04/15 03:32:10;;;;;;;24.65;9.13;;;;;;;9.10;49.85;95662.50;6265048;22;20321;-86
2022/04/15 03:34:36;;;;;;;32.92;9.02;;;;;;;9.11;49.42;95658.78;6263809;22;20015;-87
2022/04/15 03:37:03;;;;;;;16.55;7.95;;;;;;;8.68;49.69;95637.78;6264744;22;20007;-87
2022/04/15 03:39:29;;;;;;;19.98;8.50;;;;;;;9.16;50.10;95713.59;6265704;22;20367;-87
2022/04/15 03:41:55;;;;;;;21.88;8.88;;;;;;;7.79;50.07;95500.75;6269558;22;20442;-87
2022/04/15 03:44:20;;;;;;;38.28;16.20;;;;;;;8.91;49.78;95656.00;6263961;22;20011;-87
2022/04/15 03:46:45;;;;;;;32.72;13.05;;;;;;;8.05;50.11;95517.66;6264239;22;20367;-87
2022/04/15 03:49:11;;;;;;;27.60;10.10;;;;;;;8.48;49.52;95591.59;6264218;22;20011;-87
2022/04/15 03:51:37;;;;;;;30.33;10.05;;;;;;;8.13;49.73;95547.09;6264456;22;20041;-87
2022/04/15 03:54:02;;;;;;;32.33;9.48;;;;;;;6.88;49.49;95336.16;6264782;22;20015;-87
2022/04/15 03:56:28;;;;;;;21.20;9.60;;;;;;;8.83;50.51;95672.31;6263902;22;20019;-87
2022/04/15 03:58:53;;;;;;;22.38;8.10;;;;;;;8.98;50.95;95719.28;6265496;22;20030;-87
2022/04/15 04:01:19;;;;;;;32.50;9.15;;;;;;;7.81;51.12;95545.41;6291590;22;20152;-86
2022/04/15 04:03:45;;;;;;;31.48;8.77;;;;;;;8.83;51.03;95698.75;6292788;22;20007;-86
2022/04/15 04:06:10;;;;;;;40.30;9.27;;;;;;;8.37;50.58;95618.97;6264830;22;20606;-87
2022/04/15 04:08:36;;;;;;;32.53;9.07;;;;;;;6.82;50.57;95348.47;6265577;22;20098;-86
2022/04/15 04:11:03;;;;;;;25.50;8.13;;;;;;;9.17;50.56;95723.94;6294460;22;20029;-85
2022/04/15 04:13:28;;;;;;;26.38;8.80;;;;;;;9.24;50.81;95727.19;6267712;22;20098;-85
2022/04/15 04:15:54;;;;;;;32.42;8.60;;;;;;;8.53;50.34;95635.78;6266954;22;20034;-86
2022/04/15 04:18:21;;;;;;;34.35;8.70;;;;;;;8.87;50.19;95698.00;6267835;22;20018;-87
2022/04/15 04:20:48;;;;;;;24.85;8.40;;;;;;;6.88;51.21;95389.69;6270362;22;20296;-85
2022/04/15 04:23:14;;;;;;;31.23;8.13;;;;;;;9.00;51.38;95748.94;6264777;22;20027;-86
2022/04/15 04:25:39;;;;;;;24.30;8.50;;;;;;;8.36;51.23;95629.78;6262915;22;20019;-87
2022/04/15 04:28:05;;;;;;;36.40;9.75;;;;;;;8.73;51.36;95670.34;6263021;22;20015;-88
2022/04/15 04:30:30;;;;;;;31.05;9.75;;;;;;;8.93;51.28;95690.91;6260213;22;20073;-87
2022/04/15 04:32:59;;;;;;;35.08;10.25;;;;;;;8.73;50.67;95646.56;6256016;22;20003;-86
2022/04/15 04:35:25;;;;;;;50.33;15.35;;;;;;;6.23;50.97;95283.44;6257011;22;20461;-86
2022/04/15 04:37:51;;;;;;;74.35;16.17;;;;;;;6.70;50.23;95289.84;6262113;22;20285;-88
2022/04/15 04:40:20;;;;;;;65.95;14.85;;;;;;;8.89;51.25;95658.88;6261437;22;20114;-86
2022/04/15 04:42:47;;;;;;;46.35;15.35;;;;;;;3.71;49.41;94851.88;6256338;22;20012;-87
2022/04/15 04:45:15;;;;;;;57.63;17.17;;;;;;;6.74;49.66;95333.09;6252054;22;20089;-87
2022/04/15 04:47:43;;;;;;;58.45;17.42;;;;;;;7.13;49.50;95406.84;6246203;22;20345;-86
2022/04/15 04:50:09;;;;;;;58.05;17.52;;;;;;;7.54;49.41;95413.38;6250859;22;20518;-86
2022/04/15 04:52:36;;;;;;;61.95;17.35;;;;;;;9.77;48.92;95741.38;6250938;22;20007;-86
2022/04/15 04:55:03;;;;;;;43.67;17.33;;;;;;;6.81;48.42;95315.25;6252505;22;20700;-85
2022/04/15 04:57:29;;;;;;;46.38;17.88;;;;;;;6.22;48.90;95184.41;6260473;22;20346;-87
2022/04/15 04:59:56;;;;;;;71.80;17.92;;;;;;;3.96;48.67;94834.94;6247510;22;20069;-87
2022/04/15 05:02:22;;;;;;;60.17;16.98;;;;;;;9.88;47.75;95743.03;6251377;22;20018;-87
2022/04/15 05:04:50;;;;;;;57.25;19.17;;;;;;;5.08;47.79;94984.31;6249038;22;20027;-87
2022/04/15 05:07:15;;;;;;;63.70;18.00;;;;;;;8.97;47.95;95610.00;6246769;22;20271;-87
2022/04/15 05:09:43;;;;;;;62.28;18.20;;;;;;;9.59;48.57;95721.41;6247330;22;20016;-87
2022/04/15 05:12:11;;;;;;;60.15;18.10;;;;;;;4.83;48.44;94925.16;6251959;22;20071;-88
2022/04/15 05:14:37;;;;;;;70.40;18.40;;;;;;;7.91;48.02;95439.88;6252402;22;20803;-88
2022/04/15 05:17:03;;;;;;;58.83;17.23;;;;;;;10.03;48.31;95763.53;6250152;22;20012;-89
2022/04/15 05:19:29;;;;;;;62.72;15.10;;;;;;;7.59;47.97;95377.28;6251509;22;20022;-88
2022/04/15 05:21:54;;;;;;;61.47;15.38;;;;;;;8.55;47.90;95554.38;6254411;22;20431;-88
2022/04/15 05:24:20;;;;;;;52.83;14.65;;;;;;;7.98;47.76;95449.22;6256789;22;20015;-88
2022/04/15 05:26:46;;;;;;;48.10;14.70;;;;;;;8.19;47.68;95473.94;6256449;22;20397;-88
2022/04/15 05:29:11;;;;;;;47.75;14.82;;;;;;;9.62;47.82;95704.97;6254060;22;20371;-88
2022/04/15 05:31:37;;;;;;;44.65;15.65;;;;;;;4.87;47.37;94931.53;6250040;22;20007;-88
2022/04/15 05:34:03;;;;;;;51.38;17.50;;;;;;;4.88;47.10;94984.88;6256962;22;20007;-88
2022/04/15 05:36:29;;;;;;;55.85;15.70;;;;;;;9.38;47.22;95632.28;6289348;22;20011;-86
2022/04/15 05:38:54;;;;;;;57.38;13.60;;;;;;;9.76;46.96;95701.91;6256413;22;20185;-87
2022/04/15 05:41:20;;;;;;;34.33;14.50;;;;;;;8.76;47.61;95545.56;6260719;22;20012;-89
2022/04/15 05:43:46;;;;;;;36.65;13.32;;;;;;;9.46;47.96;95719.16;6255972;22;20074;-88
2022/04/15 05:46:12;;;;;;;44.53;14.15;;;;;;;9.44;47.21;95696.66;6285679;22;20018;-87
2022/04/15 05:48:38;;;;;;;49.88;14.93;;;;;;;7.33;47.46;95360.38;6283327;22;20011;-88
2022/04/15 05:51:06;;;;;;;43.60;14.23;;;;;;;9.58;47.29;95674.78;6256652;22;20017;-88
2022/04/15 05:53:32;;;;;;;40.33;15.05;;;;;;;9.35;47.61;95672.50;6253985;22;20071;-87
2022/04/15 05:55:58;;;;;;;55.08;17.63;;;;;;;4.86;47.55;94964.09;6253535;22;20101;-87
2022/04/15 05:58:25;;;;;;;48.80;14.57;;;;;;;9.69;47.02;95663.19;6257103;22;20026;-85
2022/04/15 06:00:51;;;;;;;54.65;15.70;;;;;;;7.41;46.97;95303.72;6256875;22;20031;-85
2022/04/15 06:03:18;;;;;;;54.88;17.15;;;;;;;8.20;46.83;95458.91;6255088;22;20434;-85
2022/04/15 06:05:44;;;;;;;50.33;15.82;;;;;;;8.23;47.32;95424.84;6254599;22;20041;-86
2022/04/15 06:08:16;;;;;;;56.17;14.80;;;;;;;8.46;46.57;95453.63;6289141;22;20007;-87
2022/04/15 06:10:42;;;;;;;55.38;16.45;;;;;;;5.58;46.54;94986.75;6262210;22;20011;-88
2022/04/15 06:13:14;;;;;;;60.35;16.85;;;;;;;5.45;46.49;94987.94;6254374;22;20383;-88
2022/04/15 06:15:41;;;;;;;52.00;17.30;;;;;;;7.91;46.21;95328.97;6251183;22;20018;-88
2022/04/15 06:18:14;;;;;;;49.28;15.13;;;;;;;9.88;46.29;95670.72;6264431;22;20015;-86
2022/04/15 06:20:41;;;;;;;60.13;17.63;;;;;;;8.58;46.47;95449.97;6285844;22;20008;-86
2022/04/15 06:23:07;;;;;;;76.93;18.75;;;;;;;5.75;46.14;94990.09;6257782;22;20058;-86
2022/04/15 06:25:36;;;;;;;40.55;15.63;;;;;;;5.70;46.41;95024.25;6258909;22;20039;-87
2022/04/15 06:28:01;;;;;;;65.70;15.65;;;;;;;10.54;46.10;95738.13;6257042;22;20619;-87
2022/04/15 06:30:27;;;;;;;42.88;14.82;;;;;;;10.68;46.31;95765.00;6260396;22;20011;-88
2022/04/15 06:32:53;;;;;;;50.65;14.63;;;;;;;8.39;45.28;95368.44;6260510;22;20011;-86
2022/04/15 06:35:19;;;;;;;48.50;13.85;;;;;;;9.97;45.22;95584.41;6256994;22;20025;-88
2022/04/15 06:37:44;;;;;;;45.20;14.13;;;;;;;9.58;44.94;95531.00;6255937;22;20007;-88
2022/04/15 06:40:46;;;;;;;41.25;14.10;;;;;;;7.00;44.94;95077.63;6219548;22;20613;-86
2022/04/15 06:43:13;;;;;;;41.70;13.90;;;;;;;5.54;44.63;94865.47;6229778;22;20543;-87
2022/04/15 06:45:40;;;;;;;36.42;14.48;;;;;;;6.60;44.49;95020.94;6259635;22;20021;-87
2022/04/15 06:48:05;;;;;;;48.30;15.18;;;;;;;9.59;44.27;95430.13;6259128;22;20509;-87
2022/04/15 06:50:31;;;;;;;43.50;14.38;;;;;;;6.31;44.03;94924.81;6265262;22;20025;-86
2022/04/15 06:52:57;;;;;;;43.97;13.73;;;;;;;6.77;44.32;94968.09;6268869;22;20007;-87
2022/04/15 06:55:28;;;;;;;39.15;12.82;;;;;;;10.02;43.80;95505.72;6270163;22;20011;-87
2022/04/15 06:57:53;;;;;;;50.85;15.18;;;;;;;10.81;43.66;95568.97;6230598;22;20215;-87
2022/04/15 07:00:19;;;;;;;38.80;13.88;;;;;;;11.23;43.05;95608.50;6218517;22;20026;-82
2022/04/15 07:02:45;;;;;;;44.45;13.38;;;;;;;11.56;42.49;95681.50;6222890;22;20015;-82
2022/04/15 07:05:11;;;;;;;42.33;12.57;;;;;;;11.16;41.97;95596.53;6229477;22;20012;-82
2022/04/15 07:07:45;;;;;;;36.13;11.48;;;;;;;11.55;41.35;95648.03;6218973;22;20016;-82
2022/04/15 07:12:45;;;;;;;39.00;12.80;;;;;;;7.02;42.27;95020.94;6193118;22;1296587;-85
2022/04/15 07:15:11;;;;;;;36.67;12.35;;;;;;;7.17;41.69;94949.06;6239838;22;20011;-85
2022/04/15 07:17:37;;;;;;;26.02;12.02;;;;;;;9.88;41.59;95419.03;6235335;22;20027;-85
2022/04/15 07:20:03;;;;;;;31.70;12.20;;;;;;;10.31;41.62;95458.34;6233942;22;20004;-85
2022/04/15 07:22:29;;;;;;;35.38;13.48;;;;;;;10.11;41.58;95446.91;6236263;22;20146;-85
2022/04/15 07:24:55;;;;;;;41.75;12.68;;;;;;;7.22;41.14;95005.25;6236088;22;20034;-85
2022/04/15 07:27:20;;;;;;;44.47;12.35;;;;;;;11.87;40.96;95673.53;6255438;22;20014;-86
2022/04/15 07:29:48;;;;;;;29.20;11.50;;;;;;;6.90;40.23;94870.88;6263322;22;19996;-86
2022/04/15 07:32:22;;;;;;;33.35;12.00;;;;;;;6.55;39.71;94832.00;6261318;22;20081;-86
2022/04/15 07:34:49;;;;;;;30.63;10.82;;;;;;;7.60;39.61;94980.34;6234983;22;20421;-86
2022/04/15 07:37:15;;;;;;;36.45;11.95;;;;;;;11.17;40.94;95487.44;6232949;22;20008;-86
2022/04/15 07:39:46;;;;;;;23.00;11.68;;;;;;;10.65;40.16;95413.53;6231844;22;20081;-86
2022/04/15 07:42:14;;;;;;;32.77;12.30;;;;;;;10.24;39.93;95338.53;6231720;22;20634;-86
2022/04/15 07:44:50;;;;;;;33.67;11.60;;;;;;;9.60;39.98;95287.94;6230308;22;20309;-84
2022/04/15 07:47:26;;;;;;;34.53;11.27;;;;;;;10.81;39.99;95403.69;6255624;22;20015;-85
2022/04/15 07:49:51;;;;;;;36.33;11.85;;;;;;;8.22;39.73;94957.50;6236258;22;20009;-85
2022/04/15 07:52:17;;;;;;;32.00;9.55;;;;;;;12.47;39.89;95640.59;6236262;22;20436;-86
2022/04/15 07:54:46;;;;;;;26.08;9.32;;;;;;;10.68;39.77;95312.19;6232764;22;20003;-86
2022/04/15 07:57:12;;;;;;;23.63;8.73;;;;;;;10.09;39.15;95259.00;6255501;22;20027;-86
2022/04/15 07:59:40;;;;;;;17.40;8.27;;;;;;;12.68;39.90;95643.94;6234946;22;20026;-86
2022/04/15 08:02:06;;;;;;;18.35;7.13;;;;;;;12.97;38.37;95652.81;6259312;22;20080;-85
2022/04/15 08:04:34;;;;;;;17.85;7.70;;;;;;;11.58;37.96;95412.97;6261003;22;20007;-86
2022/04/15 08:07:02;;;;;;;21.63;8.20;;;;;;;13.31;38.59;95705.34;6262268;22;20007;-86
2022/04/15 08:09:28;;;;;;;21.17;8.35;;;;;;;11.54;38.79;95393.31;6260958;22;20516;-85
2022/04/15 08:11:56;;;;;;;20.67;8.15;;;;;;;11.41;38.44;95389.41;6234922;22;20474;-85
2022/04/15 08:14:21;;;;;;;23.33;8.07;;;;;;;13.44;39.36;95652.22;6259881;22;20007;-85
2022/04/15 08:16:50;;;;;;;17.77;7.47;;;;;;;11.89;38.27;95434.88;6257639;22;20008;-85
2022/04/15 08:19:27;;;;;;;16.33;6.75;;;;;;;9.16;39.32;94992.03;6234030;22;20096;-85
2022/04/15 08:24:52;;;;;;;;;;;;;;;;;;;;;
2022/04/15 08:27:18;;;;;;;17.88;5.43;;;;;;;12.29;35.89;95461.16;6249196;22;20350;-87
2022/04/15 08:29:44;;;;;;;13.90;5.70;;;;;;;11.88;36.04;95349.03;6229093;22;20529;-85
2022/04/15 08:32:09;;;;;;;12.75;4.78;;;;;;;11.34;35.21;95289.84;6227494;22;20397;-85
2022/04/15 08:34:42;;;;;;;15.05;5.45;;;;;;;12.39;36.70;95425.72;6231551;22;20166;-86
2022/04/15 08:37:12;;;;;;;29.92;7.50;;;;;;;9.80;37.16;95023.06;6227448;22;20658;-85
2022/04/15 08:39:38;;;;;;;16.80;5.63;;;;;;;10.00;36.23;95054.75;6229281;22;20114;-87
2022/04/15 08:42:07;;;;;;;20.58;5.43;;;;;;;9.54;35.21;94963.31;6228326;22;20113;-85
2022/04/15 08:44:35;;;;;;;20.95;5.63;;;;;;;13.80;34.88;95574.59;6259084;22;20008;-84
2022/04/15 08:47:07;;;;;;;27.02;5.43;;;;;;;14.05;35.04;95611.63;6233598;22;20022;-85
2022/04/15 08:49:34;;;;;;;11.35;5.00;;;;;;;12.40;37.22;95391.94;6232194;22;20182;-84
2022/04/15 08:52:01;;;;;;;22.00;5.90;;;;;;;10.19;35.41;94988.72;6232586;22;20025;-84
2022/04/15 08:54:26;;;;;;;25.27;5.38;;;;;;;12.97;35.65;95394.56;6234752;22;20030;-86
2022/04/15 08:56:52;;;;;;;19.52;5.28;;;;;;;11.81;34.54;95206.94;6235218;22;20008;-85
2022/04/15 08:59:27;;;;;;;8.40;4.30;;;;;;;10.16;34.66;94953.97;6234569;22;20454;-86
2022/04/15 09:01:56;;;;;;;11.60;4.50;;;;;;;13.14;35.05;95420.78;6234388;22;20487;-84
2022/04/15 09:04:42;;;;;;;14.40;3.85;;;;;;;12.15;35.83;95196.22;6237903;22;20011;-85
2022/04/15 09:07:32;;;;;;;11.20;4.38;;;;;;;10.40;38.13;94912.47;6261870;22;20454;-84
2022/04/15 09:09:59;;;;;;;11.88;4.63;;;;;;;12.25;35.91;95190.78;6234653;22;20016;-84
2022/04/15 09:12:30;;;;;;;12.73;4.90;;;;;;;10.96;35.15;94994.22;6230508;22;20044;-85
2022/04/15 09:15:00;;;;;;;17.58;5.10;;;;;;;13.66;34.08;95350.59;6229229;23;20408;-84
2022/04/15 09:17:47;;;;;;;16.10;4.00;;;;;;;13.13;33.37;95262.88;6229759;23;20020;-84
2022/04/15 09:20:15;;;;;;;12.65;3.78;;;;;;;11.67;34.28;95023.47;6229624;23;20091;-85
2022/04/15 09:22:52;;;;;;;7.57;4.07;;;;;;;11.24;34.55;94972.16;6229828;22;20090;-84
2022/04/15 09:25:27;;;;;;;10.13;3.72;;;;;;;14.06;34.80;95356.41;6229279;22;20003;-85
2022/04/15 09:28:02;;;;;;;18.98;4.53;;;;;;;14.03;32.89;95357.81;6227337;22;20084;-85
2022/04/15 09:30:36;;;;;;;7.63;3.78;;;;;;;11.55;35.04;94973.38;6219386;22;20000;-84
2022/04/15 09:33:03;;;;;;;11.20;4.40;;;;;;;14.03;32.84;95341.81;6224121;22;20039;-83
2022/04/15 09:35:29;;;;;;;10.52;4.30;;;;;;;13.54;32.03;95241.00;6219444;23;20012;-82
2022/04/15 09:38:00;;;;;;;8.52;3.63;;;;;;;15.81;34.80;95569.22;6226416;23;20008;-82
2022/04/15 09:40:26;;;;;;;8.18;4.05;;;;;;;14.92;34.17;95425.19;6224636;22;20072;-82
2022/04/15 09:42:56;;;;;;;18.75;3.97;;;;;;;15.58;33.58;95509.50;6226278;22;20012;-84
2022/04/15 09:45:30;;;;;;;9.02;4.20;;;;;;;16.11;33.00;95562.47;6230764;22;20052;-83
2022/04/15 09:47:58;;;;;;;10.60;4.30;;;;;;;15.16;32.56;95418.91;6230274;23;20309;-83
2022/04/15 09:50:36;;;;;;;9.48;4.25;;;;;;;16.23;33.31;95556.63;6230491;23;20008;-82
2022/04/15 09:53:13;;;;;;;11.00;4.28;;;;;;;15.82;34.53;95474.53;6228728;22;20102;-82
2022/04/15 09:55:44;;;;;;;13.60;4.40;;;;;;;16.24;34.35;95441.28;6224377;22;20548;-83
2022/04/15 09:58:12;;;;;;;17.65;5.13;;;;;;;17.44;33.70;95483.34;6223591;22;20012;-82
2022/04/15 10:00:39;;;;;;;10.82;4.20;;;;;;;18.01;29.59;95419.75;6227467;22;20222;-82
2022/04/15 10:03:28;;;;;;;10.15;4.22;;;;;;;19.66;28.29;95526.81;6230663;22;20019;-82
2022/04/15 10:05:58;;;;;;;9.27;4.00;;;;;;;20.88;27.30;95528.47;6228569;22;20503;-82
2022/04/15 10:08:27;;;;;;;15.30;4.07;;;;;;;18.62;26.58;95033.81;6227413;22;20101;-83
2022/04/15 10:10:55;;;;;;;9.80;4.15;;;;;;;18.81;24.41;94919.41;6228588;23;20345;-82
2022/04/15 10:13:26;;;;;;;7.88;3.55;;;;;;;22.05;22.26;95253.59;6250850;22;20188;-82
2022/04/15 10:15:53;;;;;;;13.32;4.00;;;;;;;21.35;22.73;95053.47;6231497;22;20345;-82
2022/04/15 10:18:26;;;;;;;9.05;3.47;;;;;;;22.16;21.66;95131.19;6262580;22;20083;-83
2022/04/15 10:20:52;;;;;;;13.40;4.97;;;;;;;22.83;20.85;95121.22;6227280;22;20076;-83
2022/04/15 10:23:19;;;;;;;18.02;4.05;;;;;;;21.23;20.95;94870.13;6230420;22;20021;-83
2022/04/15 10:26:07;;;;;;;12.55;3.25;;;;;;;23.26;21.56;95195.22;6235313;22;20023;-83
2022/04/15 10:28:45;;;;;;;12.18;3.40;;;;;;;22.27;20.48;94978.28;6231148;22;20578;-84
2022/04/15 10:31:16;;;;;;;11.45;3.75;;;;;;;24.24;20.48;95174.03;6254326;22;20429;-83
2022/04/15 10:33:43;;;;;;;8.50;3.30;;;;;;;23.08;21.11;94937.84;6221761;22;20079;-84
2022/04/15 10:36:24;;;;;;;7.10;3.50;;;;;;;26.99;20.51;95477.34;6239320;22;20012;-83
2022/04/15 10:39:11;;;;;;;12.98;4.00;;;;;;;26.79;19.59;95478.59;6249746;22;20080;-84
2022/04/15 10:41:43;;;;;;;13.25;4.10;;;;;;;25.92;20.25;95471.50;6240566;22;20348;-85
2022/04/15 10:44:31;;;;;;;8.43;3.75;;;;;;;24.42;19.47;95217.69;6276189;22;19992;-84
2022/04/15 10:47:17;;;;;;;7.80;4.07;;;;;;;26.23;19.89;95467.72;6237387;22;20020;-85
2022/04/15 10:50:08;;;;;;;17.45;4.28;;;;;;;25.12;19.28;95223.53;6210774;22;20023;-85
2022/04/15 10:52:36;;;;;;;25.65;5.85;;;;;;;26.70;20.06;95453.63;6243195;22;20011;-83
2022/04/15 10:55:05;;;;;;;16.48;4.68;;;;;;;25.04;19.53;95132.31;6259964;22;20359;-83
2022/04/15 10:57:36;;;;;;;11.90;4.63;;;;;;;26.32;19.08;95322.22;6231540;22;20103;-83
2022/04/15 11:03:42;;;;;;;12.98;4.38;;;;;;;27.09;21.18;95441.25;6263118;22;20786;-85
2022/04/15 11:06:09;;;;;;;14.00;4.82;;;;;;;26.64;18.12;95357.94;6107448;23;20085;-84
2022/04/15 11:09:15;;;;;;;9.25;4.43;;;;;;;27.40;17.38;95431.06;6209555;22;20269;-83
2022/04/15 11:11:45;;;;;;;14.57;4.45;;;;;;;26.91;16.27;95390.53;6173014;22;20018;-85
2022/04/15 11:14:14;;;;;;;14.65;4.22;;;;;;;26.58;17.48;95304.25;6236120;22;20015;-83
2022/04/15 11:16:50;;;;;;;12.82;3.97;;;;;;;27.84;17.48;95423.72;6264632;22;20313;-84
2022/04/15 11:19:26;;;;;;;13.48;4.85;;;;;;;27.37;17.02;95393.72;6264975;22;20392;-86
2022/04/15 11:21:53;;;;;;;18.95;4.72;;;;;;;27.80;16.69;95424.84;6236478;22;20015;-84
2022/04/15 11:24:27;;;;;;;15.20;4.07;;;;;;;28.08;16.55;95405.16;6235107;22;20007;-85
2022/04/15 11:26:58;;;;;;;14.25;4.95;;;;;;;28.49;16.81;95398.44;6235347;22;20022;-85
2022/04/15 11:29:29;;;;;;;9.65;3.28;;;;;;;27.14;18.63;95298.59;6240888;22;20011;-85
2022/04/15 11:31:58;;;;;;;15.73;3.80;;;;;;;27.47;17.68;95306.63;6233583;22;20004;-86
2022/04/15 11:34:24;;;;;;;22.45;4.50;;;;;;;28.21;18.61;95412.69;6262532;22;20018;-85
2022/04/15 11:36:53;;;;;;;16.38;3.70;;;;;;;28.39;17.33;95369.94;6237516;22;20015;-85
2022/04/15 11:39:21;;;;;;;10.93;4.10;;;;;;;28.31;15.86;95398.31;6234591;22;20007;-84
2022/04/15 11:41:55;;;;;;;12.75;4.00;;;;;;;27.51;16.17;95375.53;6253877;22;20128;-85
2022/04/15 11:44:22;;;;;;;12.48;3.97;;;;;;;27.32;16.44;95324.03;6237731;22;20051;-85